createdAt,value
2018-05-16T00:01:56.855Z,9.30
2018-05-16T00:03:57.797Z,8.37
2018-05-16T00:05:58.736Z,8.10
2018-05-16T00:08:00.401Z,7.30
2018-05-16T00:10:01.332Z,8.97
2018-05-16T00:12:02.260Z,8.10
2018-05-16T00:14:03.940Z,8.40
2018-05-16T00:16:04.918Z,8.40
2018-05-16T00:18:05.840Z,9.20
2018-05-16T00:20:07.504Z,11.07
2018-05-16T00:22:08.450Z,9.47
2018-05-16T00:24:09.385Z,8.20
2018-05-16T00:26:10.315Z,7.50
2018-05-16T00:28:11.988Z,5.20
2018-05-16T00:30:12.913Z,5.33
2018-05-16T00:32:14.593Z,5.67
2018-05-16T00:34:15.544Z,5.63
2018-05-16T00:36:16.487Z,4.50
2018-05-16T00:38:17.416Z,4.50
2018-05-16T00:40:19.092Z,4.27
2018-05-16T00:42:20.024Z,7.83
2018-05-16T00:44:21.683Z,7.70
2018-05-16T00:46:23.362Z,6.33
2018-05-16T00:48:24.289Z,8.90
2018-05-16T00:50:25.943Z,7.80
2018-05-16T00:52:26.888Z,7.53
2018-05-16T00:54:27.817Z,6.80
2018-05-16T00:56:28.755Z,6.63
2018-05-16T00:58:29.684Z,6.23
2018-05-16T01:00:30.609Z,7.50
2018-05-16T01:02:31.553Z,5.40
2018-05-16T01:04:32.464Z,6.60
2018-05-16T01:06:33.425Z,7.20
2018-05-16T01:08:35.075Z,5.20
2018-05-16T01:10:35.985Z,5.57
2018-05-16T01:12:36.909Z,5.70
2018-05-16T01:14:37.826Z,5.70
2018-05-16T01:16:38.753Z,5.80
2018-05-16T01:18:39.669Z,6.90
2018-05-16T01:20:40.617Z,6.27
2018-05-16T01:22:41.532Z,5.30
2018-05-16T01:24:42.456Z,7.50
2018-05-16T01:26:43.408Z,5.67
2018-05-16T01:28:44.340Z,5.03
2018-05-16T01:30:45.259Z,4.50
2018-05-16T01:32:46.180Z,5.27
2018-05-16T01:34:47.105Z,4.90
2018-05-16T01:36:48.888Z,5.00
2018-05-16T01:38:49.806Z,6.20
2018-05-16T01:40:50.733Z,5.40
2018-05-16T01:42:52.392Z,5.13
2018-05-16T01:44:54.056Z,6.17
2018-05-16T01:46:55.029Z,6.00
2018-05-16T01:49:08.251Z,5.70
2018-05-16T01:51:09.168Z,6.37
2018-05-16T01:53:10.857Z,4.90
2018-05-16T01:55:11.787Z,4.90
2018-05-16T01:57:13.465Z,6.00
2018-05-16T01:59:14.391Z,6.07
2018-05-16T02:01:16.049Z,7.83
2018-05-16T02:03:17.721Z,7.10
2018-05-16T02:05:19.409Z,8.10
2018-05-16T02:07:20.334Z,8.57
2018-05-16T02:09:21.269Z,7.80
2018-05-16T02:11:22.930Z,5.43
2018-05-16T02:13:24.607Z,4.97
2018-05-16T02:15:25.541Z,4.23
2018-05-16T02:17:27.213Z,6.60
2018-05-16T02:19:28.136Z,6.77
2018-05-16T02:21:29.077Z,6.33
2018-05-16T02:23:30.082Z,11.10
2018-05-16T02:25:30.916Z,10.60
2018-05-16T02:27:32.585Z,9.87
2018-05-16T02:29:33.496Z,12.27
2018-05-16T02:31:35.165Z,10.00
2018-05-16T02:33:36.080Z,8.70
2018-05-16T02:35:37.005Z,9.00
2018-05-16T02:37:37.941Z,7.90
2018-05-16T02:39:38.866Z,6.97
2018-05-16T02:41:39.780Z,7.33
2018-05-16T02:43:41.456Z,5.77
2018-05-16T02:45:42.395Z,5.37
2018-05-16T02:47:43.371Z,5.90
2018-05-16T02:49:44.282Z,8.27
2018-05-16T02:51:45.981Z,6.27
2018-05-16T02:53:46.905Z,7.60
2018-05-16T02:55:47.816Z,8.20
2018-05-16T02:57:48.764Z,10.37
2018-05-16T02:59:50.409Z,7.93
2018-05-16T03:01:51.345Z,7.13
2018-05-16T03:03:52.273Z,8.10
2018-05-16T03:05:53.205Z,7.30
2018-05-16T03:07:54.873Z,8.97
2018-05-16T03:09:55.797Z,7.73
2018-05-16T03:11:56.710Z,8.87
2018-05-16T03:13:57.821Z,8.83
2018-05-16T03:15:58.752Z,8.53
2018-05-16T03:17:59.673Z,10.00
2018-05-16T03:20:01.320Z,13.13
2018-05-16T03:22:02.989Z,15.43
2018-05-16T03:24:04.637Z,11.20
2018-05-16T03:26:05.552Z,10.73
2018-05-16T03:28:06.463Z,11.37
2018-05-16T03:30:07.375Z,9.90
2018-05-16T03:32:08.282Z,10.23
2018-05-16T03:34:09.189Z,11.23
2018-05-16T03:36:10.105Z,10.13
2018-05-16T03:38:11.021Z,9.97
2018-05-16T03:40:11.941Z,10.13
2018-05-16T03:42:13.598Z,9.03
2018-05-16T03:44:14.499Z,8.33
2018-05-16T03:46:15.422Z,8.10
2018-05-16T03:48:16.349Z,7.43
2018-05-16T03:50:17.260Z,7.07
2018-05-16T03:52:18.927Z,7.33
2018-05-16T03:54:19.827Z,6.27
2018-05-16T03:56:20.748Z,6.43
2018-05-16T03:58:33.909Z,6.80
2018-05-16T04:00:47.337Z,6.00
2018-05-16T04:03:00.774Z,7.60
2018-05-16T04:05:02.481Z,5.37
2018-05-16T04:07:04.137Z,4.57
2018-05-16T04:09:05.809Z,5.10
2018-05-16T04:11:07.473Z,6.40
2018-05-16T04:13:09.135Z,8.10
2018-05-16T04:15:10.794Z,6.97
2018-05-16T04:17:12.457Z,7.80
2018-05-16T04:19:14.104Z,8.30
2018-05-16T04:21:15.757Z,9.00
2018-05-16T04:23:16.693Z,5.60
2018-05-16T04:25:17.605Z,6.60
2018-05-16T04:27:18.524Z,6.80
2018-05-16T04:29:19.538Z,6.73
2018-05-16T04:31:20.383Z,7.47
2018-05-16T04:33:21.295Z,8.43
2018-05-16T04:35:22.209Z,7.53
2018-05-16T04:37:23.128Z,7.30
2018-05-16T04:39:24.033Z,7.40
2018-05-16T04:41:24.948Z,6.90
2018-05-16T04:43:25.862Z,9.20
2018-05-16T04:45:26.793Z,9.77
2018-05-16T04:47:27.705Z,9.87
2018-05-16T04:49:28.638Z,10.57
2018-05-16T04:51:29.552Z,12.07
2018-05-16T04:53:31.203Z,12.90
2018-05-16T04:55:32.108Z,11.90
2018-05-16T04:57:33.052Z,14.00
2018-05-16T04:59:34.000Z,14.60
2018-05-16T05:01:34.939Z,17.10
2018-05-16T05:03:35.904Z,19.27
2018-05-16T05:05:36.856Z,18.37
2018-05-16T05:07:37.825Z,19.23
2018-05-16T05:09:38.782Z,20.37
2018-05-16T05:11:40.453Z,19.30
2018-05-16T05:13:42.149Z,20.00
2018-05-16T05:15:43.073Z,19.20
2018-05-16T05:17:44.034Z,19.87
2018-05-16T05:19:44.973Z,18.67
2018-05-16T05:21:45.977Z,19.57
2018-05-16T05:23:46.920Z,17.83
2018-05-16T05:25:47.889Z,18.50
2018-05-16T05:27:48.834Z,19.73
2018-05-16T05:29:49.748Z,19.47
2018-05-16T05:31:50.682Z,20.40
2018-05-16T05:33:51.627Z,19.63
2018-05-16T05:35:52.556Z,19.17
2018-05-16T05:37:53.505Z,18.93
2018-05-16T05:39:54.443Z,19.57
2018-05-16T05:41:55.395Z,18.50
2018-05-16T05:43:56.330Z,19.30
2018-05-16T05:45:57.249Z,21.20
2018-05-16T05:47:58.216Z,21.37
2018-05-16T05:49:59.154Z,20.43
2018-05-16T05:52:00.080Z,21.57
2018-05-16T05:54:01.029Z,20.10
2018-05-16T05:56:02.153Z,19.90
2018-05-16T05:58:03.096Z,21.10
2018-05-16T06:00:04.047Z,22.15
2018-05-16T06:02:04.972Z,20.53
2018-05-16T06:04:05.926Z,19.63
2018-05-16T06:06:06.850Z,21.00
2018-05-16T06:08:07.798Z,17.27
2018-05-16T06:10:08.713Z,19.40
2018-05-16T06:12:09.713Z,20.67
2018-05-16T06:14:10.650Z,18.67
2018-05-16T06:16:11.585Z,20.03
2018-05-16T06:18:12.543Z,18.53
2018-05-16T06:20:13.478Z,18.80
2018-05-16T06:22:14.409Z,19.33
2018-05-16T06:24:15.336Z,19.70
2018-05-16T06:26:16.269Z,19.13
2018-05-16T06:28:17.209Z,19.57
2018-05-16T06:30:18.129Z,19.90
2018-05-16T06:32:19.803Z,19.47
2018-05-16T06:34:21.484Z,20.60
2018-05-16T06:36:22.429Z,20.00
2018-05-16T06:38:23.353Z,20.07
2018-05-16T06:40:25.033Z,20.80
2018-05-16T06:42:25.948Z,21.50
2018-05-16T06:44:26.890Z,22.83
2018-05-16T06:46:27.811Z,21.23
2018-05-16T06:48:28.733Z,21.33
2018-05-16T06:50:30.135Z,21.37
2018-05-16T06:52:31.465Z,21.87
2018-05-16T06:54:32.389Z,20.80
2018-05-16T06:56:33.359Z,23.80
2018-05-16T06:58:34.319Z,21.73
2018-05-16T07:00:35.243Z,22.20
2018-05-16T07:02:36.150Z,19.73
2018-05-16T07:04:37.093Z,21.60
2018-05-16T07:06:38.017Z,21.43
2018-05-16T07:08:39.677Z,21.67
2018-05-16T07:10:41.352Z,20.83
2018-05-16T07:12:42.344Z,20.20
2018-05-16T07:14:43.284Z,23.83
2018-05-16T07:16:44.212Z,22.83
2018-05-16T07:18:45.157Z,22.40
2018-05-16T07:20:46.097Z,20.70
2018-05-16T07:22:47.039Z,22.03
2018-05-16T07:24:47.981Z,20.60
2018-05-16T07:26:48.902Z,21.90
2018-05-16T07:28:50.594Z,21.17
2018-05-16T07:30:51.524Z,22.17
2018-05-16T07:32:53.200Z,21.40
2018-05-16T07:34:54.137Z,21.83
2018-05-16T07:36:55.089Z,23.40
2018-05-16T07:38:56.037Z,22.60
2018-05-16T07:40:56.981Z,22.03
2018-05-16T07:42:57.913Z,22.60
2018-05-16T07:44:58.855Z,22.62
2018-05-16T07:47:00.601Z,23.13
2018-05-16T07:49:01.444Z,22.40
2018-05-16T07:51:02.392Z,23.47
2018-05-16T07:53:03.336Z,22.57
2018-05-16T07:55:04.269Z,23.50
2018-05-16T07:57:05.204Z,22.87
2018-05-16T07:59:06.153Z,24.73
2018-05-16T08:01:07.084Z,24.00
2018-05-16T08:03:08.007Z,23.47
2018-05-16T08:05:08.972Z,23.03
2018-05-16T08:07:09.898Z,23.10
2018-05-16T08:09:10.828Z,24.80
2018-05-16T08:11:11.758Z,22.10
2018-05-16T08:13:13.448Z,26.40
2018-05-16T08:15:14.409Z,24.17
2018-05-16T08:17:15.328Z,22.10
2018-05-16T08:19:16.393Z,24.37
2018-05-16T08:21:17.316Z,25.43
2018-05-16T08:23:18.981Z,24.20
2018-05-16T08:25:20.661Z,25.92
2018-05-16T08:27:21.603Z,24.40
2018-05-16T08:29:22.542Z,24.10
2018-05-16T08:31:23.456Z,24.17
2018-05-16T08:33:24.376Z,24.77
2018-05-16T08:35:25.329Z,26.30
2018-05-16T08:37:26.263Z,26.63
2018-05-16T08:39:27.189Z,24.50
2018-05-16T08:41:28.115Z,25.20
2018-05-16T08:43:29.050Z,26.83
2018-05-16T08:45:30.713Z,25.50
2018-05-16T08:47:31.669Z,26.60
2018-05-16T08:49:32.604Z,27.20
2018-05-16T08:51:34.288Z,27.97
2018-05-16T08:53:35.225Z,26.10
2018-05-16T08:55:36.170Z,25.13
2018-05-16T08:57:37.112Z,28.00
2018-05-16T08:59:38.045Z,24.80
2018-05-16T09:01:39.700Z,26.97
2018-05-16T09:03:41.375Z,27.00
2018-05-16T09:05:42.321Z,27.27
2018-05-16T09:07:43.280Z,28.40
2018-05-16T09:09:44.219Z,27.83
2018-05-16T09:11:45.132Z,29.00
2018-05-16T09:13:46.799Z,25.70
2018-05-16T09:15:47.729Z,26.20
2018-05-16T09:17:48.665Z,26.47
2018-05-16T09:19:49.584Z,24.90
2018-05-16T09:21:51.242Z,25.47
2018-05-16T09:23:52.156Z,24.17
2018-05-16T09:25:53.812Z,25.57
2018-05-16T09:27:55.490Z,23.43
2018-05-16T09:29:56.421Z,23.30
2018-05-16T09:31:58.081Z,23.77
2018-05-16T09:33:59.001Z,23.97
2018-05-16T09:35:59.913Z,26.07
2018-05-16T09:38:00.848Z,23.47
2018-05-16T09:40:01.792Z,24.80
2018-05-16T09:42:02.720Z,24.03
2018-05-16T09:44:04.392Z,22.10
2018-05-16T09:46:05.369Z,24.40
2018-05-16T09:48:06.242Z,23.93
2018-05-16T09:50:07.181Z,25.80
2018-05-16T09:52:08.097Z,25.00
2018-05-16T09:54:09.008Z,24.97
2018-05-16T09:56:10.150Z,27.37
2018-05-16T09:58:11.800Z,25.23
2018-05-16T10:00:12.742Z,26.97
2018-05-16T10:02:13.692Z,26.30
2018-05-16T10:04:15.368Z,28.37
2018-05-16T10:06:17.035Z,25.43
2018-05-16T10:08:17.958Z,26.90
2018-05-16T10:10:19.658Z,27.17
2018-05-16T10:12:20.585Z,24.23
2018-05-16T10:14:22.258Z,26.00
2018-05-16T10:16:23.184Z,24.17
2018-05-16T10:18:24.865Z,25.83
2018-05-16T10:20:25.816Z,26.13
2018-05-16T10:22:26.760Z,26.00
2018-05-16T10:24:27.688Z,24.37
2018-05-16T10:26:29.337Z,24.90
2018-05-16T10:28:30.256Z,26.80
2018-05-16T10:30:31.192Z,26.10
2018-05-16T10:32:32.128Z,26.20
2018-05-16T10:34:33.070Z,25.63
2018-05-16T10:36:33.970Z,26.70
2018-05-16T10:38:35.628Z,28.10
2018-05-16T10:40:36.597Z,24.30
2018-05-16T10:42:37.524Z,27.23
2018-05-16T10:44:39.188Z,27.47
2018-05-16T10:46:40.852Z,29.20
2018-05-16T10:48:42.514Z,28.33
2018-05-16T10:50:44.300Z,30.95
2018-05-16T10:52:45.196Z,33.40
2018-05-16T10:54:46.129Z,31.03
2018-05-16T10:56:47.080Z,28.60
2018-05-16T10:58:47.989Z,31.57
2018-05-16T11:00:48.937Z,30.30
2018-05-16T11:02:49.955Z,33.27
2018-05-16T11:04:51.620Z,35.53
2018-05-16T11:06:53.281Z,34.77
2018-05-16T11:08:54.969Z,32.90
2018-05-16T11:10:55.896Z,31.80
2018-05-16T11:12:57.615Z,32.50
2018-05-16T11:14:58.564Z,31.47
2018-05-16T11:16:59.487Z,30.00
2018-05-16T11:19:00.406Z,30.60
2018-05-16T11:21:01.360Z,31.40
2018-05-16T11:23:02.370Z,32.30
2018-05-16T11:25:04.102Z,33.30
2018-05-16T11:27:05.041Z,32.57
2018-05-16T11:29:05.957Z,32.77
2018-05-16T11:31:06.897Z,34.20
2018-05-16T11:33:07.841Z,33.00
2018-05-16T11:35:08.769Z,34.20
2018-05-16T11:37:09.717Z,34.03
2018-05-16T11:39:11.396Z,34.60
2018-05-16T11:41:12.330Z,32.00
2018-05-16T11:43:13.996Z,30.17
2018-05-16T11:45:14.926Z,30.27
2018-05-16T11:47:16.616Z,32.33
2018-05-16T11:49:17.540Z,31.20
2018-05-16T11:51:19.212Z,30.87
2018-05-16T11:53:20.873Z,30.23
2018-05-16T11:55:22.572Z,26.73
2018-05-16T11:57:23.489Z,30.53
2018-05-16T11:59:24.428Z,30.50
2018-05-16T12:01:25.368Z,28.70
2018-05-16T12:03:27.040Z,30.53
2018-05-16T12:05:27.981Z,27.30
2018-05-16T12:07:29.119Z,27.40
2018-05-16T12:09:30.795Z,28.97
2018-05-16T12:11:32.447Z,29.60
2018-05-16T12:13:34.105Z,28.70
2018-05-16T12:15:35.772Z,29.50
2018-05-16T12:17:37.457Z,27.73
2018-05-16T12:19:38.392Z,27.57
2018-05-16T12:21:40.078Z,26.80
2018-05-16T12:23:40.981Z,27.60
2018-05-16T12:25:41.917Z,27.77
2018-05-16T12:27:42.837Z,24.63
2018-05-16T12:29:43.744Z,23.00
2018-05-16T12:31:44.664Z,25.10
2018-05-16T12:33:45.577Z,30.13
2018-05-16T12:35:46.498Z,29.27
2018-05-16T12:37:47.413Z,29.00
2018-05-16T12:39:48.343Z,30.83
2018-05-16T12:41:49.263Z,29.43
2018-05-16T12:43:50.201Z,28.67
2018-05-16T12:45:51.674Z,30.80
2018-05-16T12:47:52.600Z,28.47
2018-05-16T12:49:53.516Z,30.90
2018-05-16T12:51:54.488Z,27.10
2018-05-16T12:53:55.417Z,28.97
2018-05-16T12:55:56.365Z,28.00
2018-05-16T12:57:57.293Z,28.50
2018-05-16T12:59:58.208Z,23.70
2018-05-16T13:01:59.125Z,24.90
2018-05-16T13:04:00.048Z,25.23
2018-05-16T13:06:00.973Z,23.77
2018-05-16T13:08:01.891Z,24.40
2018-05-16T13:10:03.561Z,25.10
2018-05-16T13:12:05.225Z,23.87
2018-05-16T13:14:06.925Z,23.90
2018-05-16T13:16:08.597Z,24.00
2018-05-16T13:18:09.632Z,20.57
2018-05-16T13:20:10.497Z,22.30
2018-05-16T13:22:11.425Z,22.70
2018-05-16T13:24:12.346Z,22.63
2018-05-16T13:26:13.301Z,24.33
2018-05-16T13:28:14.220Z,22.40
2018-05-16T13:30:15.184Z,22.10
2018-05-16T13:32:16.089Z,21.70
2018-05-16T13:34:17.013Z,21.13
2018-05-16T13:36:17.974Z,18.93
2018-05-16T13:38:18.857Z,19.83
2018-05-16T13:40:20.533Z,21.07
2018-05-16T13:42:21.455Z,22.30
2018-05-16T13:44:23.116Z,21.10
2018-05-16T13:46:24.100Z,21.27
2018-05-16T13:48:25.013Z,22.03
2018-05-16T13:50:25.932Z,20.80
2018-05-16T13:52:26.852Z,20.50
2018-05-16T13:54:27.772Z,21.67
2018-05-16T13:56:28.708Z,21.20
2018-05-16T13:58:30.359Z,21.10
2018-05-16T14:00:32.032Z,19.63
2018-05-16T14:02:33.691Z,19.73
2018-05-16T14:04:35.348Z,22.30
2018-05-16T14:06:37.051Z,19.77
2018-05-16T14:08:37.953Z,20.80
2018-05-16T14:10:39.619Z,21.33
2018-05-16T14:12:41.297Z,20.67
2018-05-16T14:14:42.229Z,22.17
2018-05-16T14:16:43.929Z,20.40
2018-05-16T14:18:44.877Z,20.73
2018-05-16T14:20:45.822Z,21.77
2018-05-16T14:22:46.765Z,20.60
2018-05-16T14:24:47.685Z,21.70
2018-05-16T14:26:49.349Z,20.77
2018-05-16T14:28:51.133Z,23.13
2018-05-16T14:30:52.073Z,22.00
2018-05-16T14:32:52.992Z,22.30
2018-05-16T14:34:53.921Z,22.60
2018-05-16T14:36:54.893Z,22.07
2018-05-16T14:38:56.557Z,20.07
2018-05-16T14:40:57.491Z,19.80
2018-05-16T14:42:59.276Z,21.20
2018-05-16T14:45:00.836Z,21.70
2018-05-16T14:47:01.814Z,20.93
2018-05-16T14:49:03.134Z,21.50
2018-05-16T14:51:04.107Z,22.30
2018-05-16T14:53:05.041Z,20.07
2018-05-16T14:55:05.965Z,21.70
2018-05-16T14:57:07.632Z,22.23
2018-05-16T14:59:08.555Z,21.67
2018-05-16T15:01:10.239Z,21.47
2018-05-16T15:03:11.164Z,20.93
2018-05-16T15:05:12.081Z,22.67
2018-05-16T15:07:13.301Z,20.03
2018-05-16T15:09:14.254Z,20.90
2018-05-16T15:11:15.187Z,20.93
2018-05-16T15:13:16.118Z,21.80
2018-05-16T15:15:17.186Z,19.90
2018-05-16T15:17:18.152Z,22.40
2018-05-16T15:19:19.074Z,21.53
2018-05-16T15:21:20.070Z,21.40
2018-05-16T15:23:20.929Z,23.00
2018-05-16T15:25:22.572Z,22.07
2018-05-16T15:27:23.542Z,22.70
2018-05-16T15:29:24.449Z,21.77
2018-05-16T15:31:25.371Z,22.33
2018-05-16T15:33:26.341Z,20.03
2018-05-16T15:35:27.263Z,23.33
2018-05-16T15:37:28.936Z,22.00
2018-05-16T15:39:29.896Z,21.07
2018-05-16T15:41:30.842Z,23.63
2018-05-16T15:43:31.777Z,22.70
2018-05-16T15:45:32.723Z,22.67
2018-05-16T15:47:33.661Z,22.73
2018-05-16T15:49:34.581Z,23.33
2018-05-16T15:51:35.537Z,22.70
2018-05-16T15:53:36.461Z,22.23
2018-05-16T15:55:37.391Z,23.97
2018-05-16T15:57:39.069Z,23.10
2018-05-16T15:59:40.015Z,24.30
2018-05-16T16:01:40.928Z,27.03
2018-05-16T16:03:42.620Z,25.90
2018-05-16T16:05:44.312Z,25.87
2018-05-16T16:07:45.248Z,25.93
2018-05-16T16:09:46.209Z,26.47
2018-05-16T16:11:47.142Z,27.37
2018-05-16T16:13:48.107Z,28.83
2018-05-16T16:15:49.068Z,27.70
2018-05-16T16:17:50.079Z,28.63
2018-05-16T16:19:51.055Z,30.07
2018-05-16T16:21:51.980Z,31.03
2018-05-16T16:23:52.901Z,27.77
2018-05-16T16:25:53.845Z,28.40
2018-05-16T16:27:54.827Z,30.00
2018-05-16T16:29:55.757Z,29.67
2018-05-16T16:31:56.707Z,29.70
2018-05-16T16:33:57.653Z,30.30
2018-05-16T16:35:58.585Z,31.87
2018-05-16T16:37:59.504Z,28.47
2018-05-16T16:40:01.176Z,28.73
2018-05-16T16:42:02.861Z,28.87
2018-05-16T16:44:03.796Z,29.00
2018-05-16T16:46:04.727Z,27.67
2018-05-16T16:48:06.421Z,27.07
2018-05-16T16:50:07.378Z,28.00
2018-05-16T16:52:08.328Z,28.43
2018-05-16T16:54:09.266Z,27.00
2018-05-16T16:56:10.241Z,28.77
2018-05-16T16:58:11.171Z,27.27
2018-05-16T17:00:12.136Z,28.87
2018-05-16T17:02:13.074Z,30.67
2018-05-16T17:04:14.013Z,28.30
2018-05-16T17:06:17.089Z,30.60
2018-05-16T17:08:18.335Z,28.30
2018-05-16T17:10:19.272Z,31.07
2018-05-16T17:12:20.281Z,29.30
2018-05-16T17:14:21.962Z,29.43
2018-05-16T17:16:23.654Z,31.60
2018-05-16T17:18:24.577Z,31.53
2018-05-16T17:20:25.582Z,29.50
2018-05-16T17:22:27.178Z,27.93
2018-05-16T17:24:28.096Z,26.40
2018-05-16T17:26:29.056Z,24.00
2018-05-16T17:28:30.723Z,19.57
2018-05-16T17:30:32.379Z,17.43
2018-05-16T17:32:34.053Z,15.43
2018-05-16T17:34:35.737Z,14.40
2018-05-16T17:36:36.664Z,12.83
2018-05-16T17:38:37.590Z,12.20
2018-05-16T17:40:38.516Z,11.83
2018-05-16T17:42:39.444Z,12.13
2018-05-16T17:44:40.364Z,11.40
2018-05-16T17:46:41.302Z,12.03
2018-05-16T17:48:42.222Z,11.60
2018-05-16T17:50:43.893Z,11.20
2018-05-16T17:52:45.564Z,11.40
2018-05-16T17:54:46.488Z,12.10
2018-05-16T17:56:49.965Z,11.67
2018-05-16T17:58:50.888Z,10.60
2018-05-16T18:00:51.873Z,9.90
2018-05-16T18:02:52.779Z,11.47
2018-05-16T18:04:53.704Z,11.37
2018-05-16T18:06:54.644Z,12.17
2018-05-16T18:08:55.592Z,11.80
2018-05-16T18:10:56.514Z,11.40
2018-05-16T18:16:01.083Z,12.37
2018-05-16T18:18:02.768Z,11.83
2018-05-16T18:20:03.696Z,12.53
2018-05-16T18:22:05.468Z,12.70
2018-05-16T18:24:06.392Z,12.80
2018-05-16T18:26:07.307Z,11.60
2018-05-16T18:28:08.240Z,12.17
2018-05-16T18:30:09.157Z,12.70
2018-05-16T18:32:10.081Z,11.73
2018-05-16T18:34:11.756Z,12.40
2018-05-16T18:36:13.415Z,11.77
2018-05-16T18:38:15.092Z,12.10
2018-05-16T18:40:16.014Z,12.93
2018-05-16T18:42:17.756Z,11.40
2018-05-16T18:44:18.604Z,12.43
2018-05-16T18:46:19.527Z,13.23
2018-05-16T18:48:20.537Z,12.53
2018-05-16T18:50:21.461Z,13.47
2018-05-16T18:52:23.135Z,12.57
2018-05-16T18:54:24.064Z,12.30
2018-05-16T18:56:25.730Z,13.17
2018-05-16T18:58:27.425Z,11.93
2018-05-16T19:00:28.359Z,12.90
2018-05-16T19:02:29.277Z,13.37
2018-05-16T19:04:30.220Z,13.50
2018-05-16T19:06:31.891Z,12.50
2018-05-16T19:08:33.561Z,12.50
2018-05-16T19:10:35.240Z,12.67
2018-05-16T19:12:36.176Z,11.63
2018-05-16T19:14:37.920Z,11.67
2018-05-16T19:16:38.861Z,11.33
2018-05-16T19:18:40.460Z,11.20
2018-05-16T19:20:41.403Z,12.63
2018-05-16T19:22:42.329Z,12.57
2018-05-16T19:24:44.005Z,12.40
2018-05-16T19:26:44.937Z,11.07
2018-05-16T19:28:46.588Z,11.17
2018-05-16T19:30:48.312Z,11.83
2018-05-16T19:32:49.277Z,10.30
2018-05-16T19:34:51.216Z,10.53
2018-05-16T19:36:52.133Z,10.47
2018-05-16T19:38:53.066Z,10.80
2018-05-16T19:40:54.740Z,10.23
2018-05-16T19:42:55.685Z,9.90
2018-05-16T19:44:57.357Z,11.53
2018-05-16T19:46:58.308Z,10.70
2018-05-16T19:48:59.257Z,10.50
2018-05-16T19:51:00.219Z,10.60
2018-05-16T19:53:01.188Z,10.20
2018-05-16T19:55:02.105Z,10.17
2018-05-16T19:57:03.157Z,10.10
2018-05-16T19:59:04.069Z,9.47
2018-05-16T20:01:05.021Z,11.17
2018-05-16T20:03:05.968Z,9.60
2018-05-16T20:05:06.916Z,9.03
2018-05-16T20:07:07.847Z,9.13
2018-05-16T20:09:09.571Z,9.37
2018-05-16T20:11:10.457Z,9.60
2018-05-16T20:13:12.156Z,9.63
2018-05-16T20:15:13.093Z,9.50
2018-05-16T20:17:14.760Z,9.93
2018-05-16T20:19:15.717Z,10.00
2018-05-16T20:21:16.668Z,8.60
2018-05-16T20:23:17.585Z,9.60
2018-05-16T20:25:18.545Z,10.20
2018-05-16T20:27:19.481Z,9.90
2018-05-16T20:29:20.495Z,9.87
2018-05-16T20:31:21.394Z,8.90
2018-05-16T20:33:22.328Z,9.07
2018-05-16T20:35:23.347Z,9.53
2018-05-16T20:37:25.093Z,9.17
2018-05-16T20:39:26.759Z,10.40
2018-05-16T20:41:28.434Z,10.00
2018-05-16T20:43:29.390Z,9.47
2018-05-16T20:45:30.325Z,9.60
2018-05-16T20:47:31.252Z,8.70
2018-05-16T20:49:32.937Z,8.20
2018-05-16T20:51:33.886Z,9.20
2018-05-16T20:53:34.972Z,9.20
2018-05-16T20:55:36.012Z,10.37
2018-05-16T20:57:37.007Z,9.67
2018-05-16T20:59:38.679Z,9.50
2018-05-16T21:01:39.623Z,10.67
2018-05-16T21:03:41.300Z,10.10
2018-05-16T21:05:42.235Z,9.93
2018-05-16T21:07:43.210Z,8.90
2018-05-16T21:09:44.128Z,9.30
2018-05-16T21:11:45.064Z,10.03
2018-05-16T21:13:46.740Z,9.73
2018-05-16T21:15:47.808Z,10.20
2018-05-16T21:17:49.524Z,10.23
2018-05-16T21:19:51.272Z,8.90
2018-05-16T21:21:52.233Z,10.73
2018-05-16T21:23:53.157Z,9.00
2018-05-16T21:25:54.193Z,10.43
2018-05-16T21:27:55.112Z,9.30
2018-05-16T21:29:56.058Z,11.00
2018-05-16T21:31:57.030Z,8.93
2018-05-16T21:33:57.974Z,9.43
2018-05-16T21:35:58.906Z,8.83
2018-05-16T21:37:59.917Z,9.37
2018-05-16T21:40:01.593Z,10.10
2018-05-16T21:42:02.577Z,9.60
2018-05-16T21:44:03.512Z,8.90
2018-05-16T21:46:04.444Z,9.00
2018-05-16T21:48:05.440Z,9.37
2018-05-16T21:50:06.406Z,8.80
2018-05-16T21:52:08.091Z,9.13
2018-05-16T21:54:09.077Z,10.53
2018-05-16T21:56:10.094Z,9.33
2018-05-16T21:58:11.014Z,8.77
2018-05-16T22:00:12.685Z,7.90
2018-05-16T22:02:13.607Z,8.37
2018-05-16T22:04:15.309Z,8.23
2018-05-16T22:06:16.266Z,9.27
2018-05-16T22:08:17.233Z,8.50
2018-05-16T22:10:18.152Z,8.20
2018-05-16T22:12:19.156Z,9.13
2018-05-16T22:14:20.082Z,7.40
2018-05-16T22:16:21.020Z,8.90
2018-05-16T22:18:21.978Z,8.90
2018-05-16T22:20:22.906Z,7.93
2018-05-16T22:22:23.841Z,9.67
2018-05-16T22:24:24.764Z,8.80
2018-05-16T22:26:25.708Z,7.97
2018-05-16T22:28:26.657Z,9.00
2018-05-16T22:30:33.753Z,8.17
2018-05-16T22:32:40.881Z,7.50
2018-05-16T22:34:47.891Z,7.90
2018-05-16T22:36:55.781Z,8.53
2018-05-16T22:39:02.910Z,8.77
2018-05-16T22:41:09.854Z,9.07
2018-05-16T22:43:10.779Z,7.20
2018-05-16T22:45:17.760Z,9.13
2018-05-16T22:47:18.713Z,8.30
2018-05-16T22:49:19.633Z,8.33
2018-05-16T22:51:20.561Z,7.97
2018-05-16T22:53:22.229Z,7.87
2018-05-16T22:55:23.160Z,7.80
2018-05-16T22:57:24.824Z,8.53
2018-05-16T22:59:26.508Z,7.27
2018-05-16T23:01:28.152Z,7.80
2018-05-16T23:03:29.820Z,8.47
2018-05-16T23:05:31.489Z,8.37
2018-05-16T23:07:32.429Z,9.03
2018-05-16T23:09:34.120Z,9.20
2018-05-16T23:11:35.075Z,7.33
2018-05-16T23:13:36.009Z,7.17
2018-05-16T23:15:36.920Z,8.30
2018-05-16T23:17:38.594Z,8.50
2018-05-16T23:19:39.517Z,8.10
2018-05-16T23:21:41.207Z,7.10
2018-05-16T23:23:42.132Z,7.70
2018-05-16T23:25:43.825Z,7.17
2018-05-16T23:27:44.761Z,8.17
2018-05-16T23:29:45.681Z,7.60
2018-05-16T23:31:47.372Z,7.57
2018-05-16T23:33:48.293Z,7.20
2018-05-16T23:35:49.977Z,7.53
2018-05-16T23:37:50.968Z,6.70
2018-05-16T23:39:51.900Z,8.50
2018-05-16T23:41:52.845Z,8.07
2018-05-16T23:43:53.796Z,8.57
2018-05-16T23:45:54.732Z,8.27
2018-05-16T23:47:55.685Z,8.37
2018-05-16T23:49:56.607Z,8.50
2018-05-16T23:51:57.568Z,6.80
2018-05-16T23:53:58.494Z,8.00
2018-05-16T23:55:59.396Z,7.17
2018-05-16T23:58:00.339Z,6.90
